Time;durP1;ratioP1;P1;durP2;ratioP2;P2;SDS_P1;SDS_P2;PMS_P1;PMS_P2;Temp;Humidity;BMP_temperature;BMP_pressure;BME280_temperature;BME280_humidity;BME280_pressure;Samples;Min_cycle;Max_cycle;Signal;HPM_P1;HPM_P2
2023/07/01 00:03:30;;;;;;;7.20;6.50;;;;;;;;;;10001851;29;20566;-67
2023/07/01 00:08:26;;;;;;;6.97;6.43;;;;;;;;;;9997590;29;20048;-69
2023/07/01 00:13:24;;;;;;;7.72;6.47;;;;;;;;;;9998198;29;20044;-69
2023/07/01 00:18:20;;;;;;;6.97;6.28;;;;;;;;;;9992163;29;20447;-68
2023/07/01 00:23:18;;;;;;;8.10;6.50;;;;;;;;;;9997035;29;20040;-68
2023/07/01 00:28:14;;;;;;;6.88;6.20;;;;;;;;;;9989989;29;20510;-68
2023/07/01 00:33:10;;;;;;;8.15;5.93;;;;;;;;;;9998437;29;20079;-68
2023/07/01 00:38:07;;;;;;;6.43;5.45;;;;;;;;;;10002030;29;20044;-68
2023/07/01 00:43:03;;;;;;;6.50;5.90;;;;;;;;;;9988086;29;20096;-68
2023/07/01 00:47:59;;;;;;;7.22;6.20;;;;;;;;;;9991458;29;20048;-68
2023/07/01 00:52:56;;;;;;;8.23;6.40;;;;;;;;;;9999025;29;20072;-68
2023/07/01 00:57:52;;;;;;;6.53;5.85;;;;;;;;;;9999736;29;20145;-68
2023/07/01 01:02:58;;;;;;;6.93;6.00;;;;;;;;;;9994081;29;20056;-68
2023/07/01 01:08:21;;;;;;;6.50;5.90;;;;;;;;;;9968743;29;20047;-68
2023/07/01 01:13:18;;;;;;;6.73;6.00;;;;;;;;;;9990150;29;20040;-69
2023/07/01 01:18:18;;;;;;;6.45;5.70;;;;;;;;;;10000376;29;20553;-67
2023/07/01 01:23:20;;;;;;;6.40;5.75;;;;;;;;;;9988503;29;20140;-68
2023/07/01 01:28:16;;;;;;;;;;;;;;;;;;9989706;29;20063;-68
2023/07/01 01:33:13;;;;;;;6.25;5.65;;;;;;;;;;9990613;29;19970;-67
2023/07/01 01:38:15;;;;;;;8.43;6.20;;;;;;;;;;9997141;29;20529;-68
2023/07/01 01:43:22;;;;;;;6.53;5.90;;;;;;;;;;9995294;29;20426;-67
2023/07/01 01:48:19;;;;;;;6.28;5.60;;;;;;;;;;9991429;29;20044;-68
2023/07/01 01:53:16;;;;;;;6.18;5.57;;;;;;;;;;9987908;29;20049;-68
2023/07/01 01:58:12;;;;;;;8.18;6.35;;;;;;;;;;9987328;29;20071;-68
2023/07/01 02:03:08;;;;;;;7.10;6.05;;;;;;;;;;9992287;29;20048;-68
2023/07/01 02:08:06;;;;;;;8.45;6.45;;;;;;;;;;9992073;29;20078;-68
2023/07/01 02:13:02;;;;;;;7.13;5.82;;;;;;;;;;9993748;29;20059;-68
2023/07/01 02:17:59;;;;;;;6.40;5.80;;;;;;;;;;9984575;29;20144;-68
2023/07/01 02:22:55;;;;;;;6.43;5.82;;;;;;;;;;9993548;29;20067;-68
2023/07/01 02:27:51;;;;;;;6.80;6.20;;;;;;;;;;9990371;29;21284;-68
2023/07/01 02:32:48;;;;;;;9.65;6.10;;;;;;;;;;9989515;29;20044;-68
2023/07/01 02:37:44;;;;;;;10.48;6.03;;;;;;;;;;9989687;29;20083;-68
2023/07/01 02:42:41;;;;;;;7.13;6.43;;;;;;;;;;9996476;29;20056;-67
2023/07/01 02:47:37;;;;;;;7.00;6.30;;;;;;;;;;9979654;29;20056;-69
2023/07/01 02:52:34;;;;;;;7.22;6.53;;;;;;;;;;9990200;29;20072;-69
2023/07/01 02:57:30;;;;;;;7.13;6.43;;;;;;;;;;9992746;29;20463;-69
2023/07/01 03:02:27;;;;;;;7.30;6.70;;;;;;;;;;9989123;29;20703;-68
2023/07/01 03:07:23;;;;;;;8.90;7.00;;;;;;;;;;9973422;29;20056;-67
2023/07/01 03:12:19;;;;;;;7.22;6.35;;;;;;;;;;9985715;29;20507;-67
2023/07/01 03:17:15;;;;;;;7.00;6.38;;;;;;;;;;9992064;29;20048;-69
2023/07/01 03:22:12;;;;;;;7.60;6.43;;;;;;;;;;9987347;29;20399;-67
2023/07/01 03:27:08;;;;;;;6.85;6.15;;;;;;;;;;9988410;29;20514;-68
2023/07/01 03:32:05;;;;;;;7.05;6.35;;;;;;;;;;9995463;29;20116;-67
2023/07/01 03:37:01;;;;;;;6.80;6.20;;;;;;;;;;9999803;29;20056;-66
2023/07/01 03:41:58;;;;;;;7.70;7.00;;;;;;;;;;9993629;29;20072;-68
2023/07/01 03:46:55;;;;;;;8.15;6.95;;;;;;;;;;9992121;29;20052;-68
2023/07/01 03:51:51;;;;;;;7.53;6.82;;;;;;;;;;9999270;29;20071;-67
2023/07/01 03:56:48;;;;;;;7.43;6.82;;;;;;;;;;9998224;29;20479;-68
2023/07/01 04:01:44;;;;;;;7.53;6.88;;;;;;;;;;9994342;29;20123;-68
2023/07/01 04:06:43;;;;;;;7.22;6.63;;;;;;;;;;9994777;29;20139;-68
2023/07/01 04:11:39;;;;;;;8.52;7.55;;;;;;;;;;9990146;29;20055;-68
2023/07/01 04:16:36;;;;;;;8.02;6.70;;;;;;;;;;9995362;29;20064;-68
2023/07/01 04:21:32;;;;;;;7.65;6.85;;;;;;;;;;9999455;29;20090;-68
2023/07/01 04:26:28;;;;;;;7.88;7.18;;;;;;;;;;9995348;29;20047;-69
2023/07/01 04:31:25;;;;;;;7.25;6.65;;;;;;;;;;9995623;29;20605;-69
2023/07/01 04:36:22;;;;;;;7.68;6.65;;;;;;;;;;9994394;29;20060;-67
2023/07/01 04:41:18;;;;;;;10.35;7.55;;;;;;;;;;9996826;29;20051;-68
2023/07/01 04:46:14;;;;;;;7.45;6.50;;;;;;;;;;9979433;29;20056;-68
2023/07/01 04:51:11;;;;;;;8.48;7.00;;;;;;;;;;9996875;29;20060;-68
2023/07/01 04:56:07;;;;;;;7.72;6.93;;;;;;;;;;9997177;29;20103;-68
2023/07/01 05:01:03;;;;;;;8.30;6.60;;;;;;;;;;10000042;29;20089;-69
2023/07/01 05:06:00;;;;;;;7.38;6.40;;;;;;;;;;9989916;29;20048;-69
2023/07/01 05:10:56;;;;;;;7.38;6.47;;;;;;;;;;9997974;29;20052;-69
2023/07/01 05:15:52;;;;;;;7.50;6.80;;;;;;;;;;9993233;29;20123;-68
2023/07/01 05:20:49;;;;;;;7.30;6.45;;;;;;;;;;9990949;29;21339;-68
2023/07/01 05:25:45;;;;;;;7.65;6.72;;;;;;;;;;9992696;29;20095;-69
2023/07/01 05:30:42;;;;;;;7.40;6.70;;;;;;;;;;9993573;29;20055;-69
2023/07/01 05:35:38;;;;;;;9.07;6.50;;;;;;;;;;9975740;29;20048;-69
2023/07/01 05:40:35;;;;;;;7.20;6.60;;;;;;;;;;9994295;29;20083;-68
2023/07/01 05:45:31;;;;;;;10.23;7.38;;;;;;;;;;9992691;29;20111;-69
2023/07/01 05:50:28;;;;;;;8.40;7.63;;;;;;;;;;9970671;29;20048;-69
2023/07/01 05:55:24;;;;;;;9.32;8.43;;;;;;;;;;10002036;29;20618;-68
2023/07/01 06:00:22;;;;;;;9.05;8.18;;;;;;;;;;9991913;29;20040;-70
2023/07/01 06:05:18;;;;;;;9.43;8.65;;;;;;;;;;9987588;29;20077;-70
2023/07/01 06:10:14;;;;;;;9.20;8.50;;;;;;;;;;9984370;29;20076;-71
2023/07/01 06:15:11;;;;;;;11.48;9.80;;;;;;;;;;9984533;29;20574;-69
2023/07/01 06:20:07;;;;;;;10.48;9.57;;;;;;;;;;9984350;29;20099;-67
2023/07/01 06:25:04;;;;;;;10.25;9.20;;;;;;;;;;9985301;29;20044;-68
2023/07/01 06:30:00;;;;;;;10.13;9.23;;;;;;;;;;9992709;29;20075;-67
2023/07/01 06:34:56;;;;;;;9.98;9.10;;;;;;;;;;10029621;29;20048;-67
2023/07/01 06:39:53;;;;;;;9.90;9.10;;;;;;;;;;10024738;29;20044;-72
2023/07/01 06:44:49;;;;;;;10.57;9.65;;;;;;;;;;10025804;29;20569;-72
2023/07/01 06:49:46;;;;;;;10.70;9.77;;;;;;;;;;10027825;29;20051;-72
2023/07/01 06:54:43;;;;;;;10.07;9.10;;;;;;;;;;10015262;29;20528;-72
2023/07/01 06:59:41;;;;;;;9.90;9.10;;;;;;;;;;10029160;29;20048;-72
2023/07/01 07:04:37;;;;;;;9.95;9.00;;;;;;;;;;10025765;29;20043;-72
2023/07/01 07:09:34;;;;;;;10.00;8.95;;;;;;;;;;10025860;29;20060;-71
2023/07/01 07:14:30;;;;;;;10.50;9.50;;;;;;;;;;10027520;29;20047;-72
2023/07/01 07:19:26;;;;;;;9.93;9.10;;;;;;;;;;10027439;29;20095;-71
2023/07/01 07:24:23;;;;;;;10.32;9.32;;;;;;;;;;10022958;29;20039;-72
2023/07/01 07:29:19;;;;;;;11.07;9.98;;;;;;;;;;10008918;29;21450;-71
2023/07/01 07:34:16;;;;;;;10.35;9.32;;;;;;;;;;10028728;29;20518;-72
2023/07/01 07:39:13;;;;;;;15.07;11.20;;;;;;;;;;10030230;29;20528;-72
2023/07/01 07:44:12;;;;;;;10.85;9.90;;;;;;;;;;10008720;29;20082;-72
2023/07/01 07:49:08;;;;;;;12.77;11.38;;;;;;;;;;10027155;29;20044;-72
2023/07/01 07:54:04;;;;;;;11.48;10.48;;;;;;;;;;10029808;29;20119;-72
2023/07/01 07:59:00;;;;;;;12.10;11.13;;;;;;;;;;10030975;29;20565;-71
2023/07/01 08:03:57;;;;;;;10.93;10.02;;;;;;;;;;10003726;29;20083;-71
2023/07/01 08:08:53;;;;;;;13.73;12.40;;;;;;;;;;10010295;29;20082;-72
2023/07/01 08:13:50;;;;;;;12.43;11.52;;;;;;;;;;10028181;29;20047;-71
2023/07/01 08:18:46;;;;;;;13.63;12.38;;;;;;;;;;10034245;29;20059;-71
2023/07/01 08:23:43;;;;;;;12.63;11.68;;;;;;;;;;10003749;29;20426;-72
2023/07/01 08:28:39;;;;;;;14.23;12.75;;;;;;;;;;9994216;29;20822;-72
2023/07/01 08:33:36;;;;;;;13.68;12.57;;;;;;;;;;9967883;29;20083;-73
2023/07/01 08:38:44;;;;;;;13.88;12.82;;;;;;;;;;9974932;29;20055;-73
2023/07/01 08:43:41;;;;;;;13.90;12.70;;;;;;;;;;10013114;29;20048;-73
2023/07/01 08:48:37;;;;;;;14.00;12.80;;;;;;;;;;10029452;29;20060;-74
2023/07/01 08:53:34;;;;;;;14.65;13.45;;;;;;;;;;10017390;29;20530;-73
2023/07/01 08:58:30;;;;;;;14.68;13.48;;;;;;;;;;10037119;29;20055;-73
2023/07/01 09:03:27;;;;;;;14.45;13.18;;;;;;;;;;10033450;29;20055;-73
2023/07/01 09:08:23;;;;;;;15.93;14.50;;;;;;;;;;10033041;29;20067;-73
2023/07/01 09:13:19;;;;;;;16.40;14.80;;;;;;;;;;10031271;29;20043;-73
2023/07/01 09:18:20;;;;;;;15.05;13.85;;;;;;;;;;10001060;29;20048;-73
2023/07/01 09:23:32;;;;;;;15.00;13.75;;;;;;;;;;9997865;29;20487;-73
2023/07/01 09:28:31;;;;;;;15.30;13.80;;;;;;;;;;10019158;29;20051;-74
2023/07/01 09:33:28;;;;;;;14.95;13.65;;;;;;;;;;10003265;29;20087;-73
2023/07/01 09:38:24;;;;;;;14.55;13.27;;;;;;;;;;9995789;29;20511;-73
2023/07/01 09:43:32;;;;;;;15.35;13.93;;;;;;;;;;9991581;29;20048;-73
2023/07/01 09:48:28;;;;;;;15.68;14.18;;;;;;;;;;9976347;29;20040;-73
2023/07/01 09:53:24;;;;;;;14.50;13.40;;;;;;;;;;9996859;29;20133;-73
2023/07/01 09:58:21;;;;;;;15.45;14.13;;;;;;;;;;9996236;29;20043;-73
2023/07/01 10:03:19;;;;;;;16.20;14.63;;;;;;;;;;9993680;29;20147;-73
2023/07/01 10:08:15;;;;;;;13.55;12.32;;;;;;;;;;9993624;29;20667;-73
2023/07/01 10:13:12;;;;;;;15.15;13.80;;;;;;;;;;9987275;29;20083;-72
2023/07/01 10:18:22;;;;;;;15.70;14.20;;;;;;;;;;9995779;29;20133;-73
2023/07/01 10:23:19;;;;;;;16.50;14.90;;;;;;;;;;9987870;29;20040;-73
2023/07/01 10:28:15;;;;;;;15.68;14.27;;;;;;;;;;10017687;29;20675;-73
2023/07/01 10:33:27;;;;;;;16.48;14.98;;;;;;;;;;10008505;29;20071;-73
2023/07/01 10:38:23;;;;;;;14.90;13.70;;;;;;;;;;9976986;29;20428;-73
2023/07/01 10:43:23;;;;;;;15.65;14.35;;;;;;;;;;10021939;29;20052;-73
2023/07/01 10:48:19;;;;;;;16.40;15.00;;;;;;;;;;10024764;29;20048;-73
2023/07/01 10:53:15;;;;;;;16.27;14.88;;;;;;;;;;10029769;29;20394;-73
2023/07/01 10:58:14;;;;;;;15.00;13.82;;;;;;;;;;10033270;29;20051;-73
2023/07/01 11:08:42;;;;;;;14.95;13.65;;;;;;;;;;10014140;29;20110;-73
2023/07/01 11:13:52;;;;;;;15.18;13.80;;;;;;;;;;10028547;29;20048;-73
2023/07/01 11:18:50;;;;;;;14.50;13.20;;;;;;;;;;10030848;29;20055;-73
2023/07/01 11:24:06;;;;;;;17.40;15.70;;;;;;;;;;10010256;29;20043;-73
2023/07/01 11:29:07;;;;;;;16.00;14.63;;;;;;;;;;10022146;29;20044;-73
2023/07/01 11:34:04;;;;;;;15.73;14.43;;;;;;;;;;10000744;29;20075;-73
2023/07/01 11:39:09;;;;;;;15.93;14.73;;;;;;;;;;9984268;29;20072;-73
2023/07/01 11:44:07;;;;;;;15.75;14.40;;;;;;;;;;9987773;29;20499;-73
2023/07/01 11:49:09;;;;;;;16.33;14.90;;;;;;;;;;9973667;29;20529;-73
2023/07/01 11:54:08;;;;;;;15.70;14.40;;;;;;;;;;9999826;29;20083;-73
2023/07/01 11:59:06;;;;;;;16.35;15.05;;;;;;;;;;9979949;29;20083;-73
2023/07/01 12:04:12;;;;;;;16.08;14.60;;;;;;;;;;9990874;29;20048;-73
2023/07/01 12:09:09;;;;;;;15.93;14.57;;;;;;;;;;9995899;29;20737;-73
2023/07/01 12:14:18;;;;;;;13.85;12.63;;;;;;;;;;10031891;29;20082;-73
2023/07/01 12:19:15;;;;;;;13.57;12.48;;;;;;;;;;10035381;29;20522;-72
2023/07/01 12:24:19;;;;;;;15.35;14.05;;;;;;;;;;10035617;29;20047;-73
2023/07/01 12:29:15;;;;;;;14.15;12.93;;;;;;;;;;10031697;29;20102;-73
2023/07/01 12:34:11;;;;;;;13.02;11.93;;;;;;;;;;10035123;29;20127;-73
2023/07/01 12:39:08;;;;;;;14.05;12.85;;;;;;;;;;10037028;29;20083;-73
2023/07/01 12:44:05;;;;;;;13.77;12.57;;;;;;;;;;10037065;29;20043;-73
2023/07/01 12:49:03;;;;;;;13.70;12.40;;;;;;;;;;10035060;29;20110;-73
2023/07/01 12:54:00;;;;;;;12.68;11.70;;;;;;;;;;10035749;29;20043;-73
2023/07/01 12:59:11;;;;;;;16.57;14.37;;;;;;;;;;10031026;29;20042;-73
2023/07/01 13:04:08;;;;;;;15.27;13.82;;;;;;;;;;10036713;29;20086;-73
2023/07/01 13:09:05;;;;;;;13.68;12.48;;;;;;;;;;10036490;29;20040;-73
2023/07/01 13:14:06;;;;;;;12.20;11.20;;;;;;;;;;10036046;29;20110;-73
2023/07/01 13:19:03;;;;;;;12.20;11.30;;;;;;;;;;10034411;29;20052;-73
2023/07/01 13:24:02;;;;;;;12.90;11.80;;;;;;;;;;10032396;29;20661;-73
2023/07/01 13:29:08;;;;;;;11.85;11.05;;;;;;;;;;10033375;29;20047;-73
2023/07/01 13:34:11;;;;;;;12.23;11.32;;;;;;;;;;10032786;29;20130;-73
2023/07/01 13:39:13;;;;;;;10.93;10.13;;;;;;;;;;10034041;29;20381;-73
2023/07/01 13:44:15;;;;;;;11.98;10.98;;;;;;;;;;10032788;29;20043;-73
2023/07/01 13:49:11;;;;;;;11.45;10.65;;;;;;;;;;10035374;29;20063;-73
2023/07/01 13:54:08;;;;;;;11.65;10.80;;;;;;;;;;10034983;29;20059;-73
2023/07/01 13:59:07;;;;;;;11.60;10.70;;;;;;;;;;10034614;29;20442;-73
2023/07/01 14:04:04;;;;;;;12.43;11.52;;;;;;;;;;10000150;29;20491;-73
2023/07/01 14:09:01;;;;;;;11.80;10.95;;;;;;;;;;9985116;29;20080;-73
2023/07/01 14:13:58;;;;;;;12.18;11.38;;;;;;;;;;9995888;29;20574;-73
2023/07/01 14:18:57;;;;;;;12.07;11.27;;;;;;;;;;9989808;29;20722;-73
2023/07/01 14:23:58;;;;;;;11.95;11.15;;;;;;;;;;9994983;29;20048;-73
2023/07/01 14:28:59;;;;;;;13.00;12.10;;;;;;;;;;9992499;29;20044;-73
2023/07/01 14:33:56;;;;;;;13.48;12.57;;;;;;;;;;9990557;29;20052;-73
2023/07/01 14:38:53;;;;;;;14.52;13.43;;;;;;;;;;9995081;29;20059;-73
2023/07/01 14:43:59;;;;;;;14.15;13.05;;;;;;;;;;9989941;29;20503;-73
2023/07/01 14:48:56;;;;;;;13.43;12.40;;;;;;;;;;9995164;29;20048;-73
2023/07/01 14:53:53;;;;;;;12.88;11.98;;;;;;;;;;9982065;29;20138;-73
2023/07/01 14:58:50;;;;;;;13.85;12.75;;;;;;;;;;9997755;29;20063;-73
2023/07/01 15:03:46;;;;;;;14.25;13.15;;;;;;;;;;9977437;29;20056;-73
2023/07/01 15:08:44;;;;;;;13.52;12.52;;;;;;;;;;9990784;29;20056;-73
2023/07/01 15:13:40;;;;;;;13.45;12.45;;;;;;;;;;9988934;29;20404;-74
2023/07/01 15:18:37;;;;;;;13.25;12.23;;;;;;;;;;9976466;29;20048;-73
2023/07/01 15:23:34;;;;;;;11.77;10.88;;;;;;;;;;9995228;29;20063;-73
2023/07/01 15:28:30;;;;;;;12.95;11.95;;;;;;;;;;9996355;29;20107;-73
2023/07/01 15:33:27;;;;;;;12.27;11.32;;;;;;;;;;9977097;29;20044;-73
2023/07/01 15:38:23;;;;;;;12.90;11.90;;;;;;;;;;9993381;29;20499;-73
2023/07/01 15:43:19;;;;;;;13.10;12.00;;;;;;;;;;9993686;29;20176;-73
2023/07/01 15:48:16;;;;;;;12.55;11.55;;;;;;;;;;9991994;29;20423;-73
2023/07/01 15:53:12;;;;;;;12.48;11.55;;;;;;;;;;9995474;29;20048;-73
2023/07/01 15:58:09;;;;;;;12.80;11.55;;;;;;;;;;9985842;29;20707;-73
2023/07/01 16:03:06;;;;;;;12.20;11.20;;;;;;;;;;9991088;29;20534;-73
2023/07/01 16:08:04;;;;;;;11.80;10.88;;;;;;;;;;9992175;29;20048;-73
2023/07/01 16:13:05;;;;;;;11.13;10.23;;;;;;;;;;9975759;29;20045;-73
2023/07/01 16:18:06;;;;;;;11.27;10.27;;;;;;;;;;9995566;29;20036;-74
2023/07/01 16:23:06;;;;;;;12.43;11.52;;;;;;;;;;9976158;29;20091;-73
2023/07/01 16:28:03;;;;;;;12.07;11.07;;;;;;;;;;9997160;29;20099;-74
2023/07/01 16:33:01;;;;;;;11.93;10.93;;;;;;;;;;10002395;29;20048;-74
2023/07/01 16:37:58;;;;;;;11.48;10.48;;;;;;;;;;10026496;29;20131;-73
2023/07/01 16:42:54;;;;;;;10.63;9.63;;;;;;;;;;10009741;29;20119;-73
2023/07/01 16:47:52;;;;;;;11.63;10.48;;;;;;;;;;9999105;29;20055;-73
2023/07/01 16:52:52;;;;;;;12.30;11.10;;;;;;;;;;9999625;29;20055;-73
2023/07/01 16:57:48;;;;;;;11.98;10.90;;;;;;;;;;9998178;29;20491;-73
2023/07/01 17:02:54;;;;;;;12.45;11.35;;;;;;;;;;10016812;29;20044;-73
2023/07/01 17:07:50;;;;;;;11.40;10.40;;;;;;;;;;10036281;29;20099;-73
2023/07/01 17:12:46;;;;;;;11.65;10.55;;;;;;;;;;10035611;29;20119;-73
2023/07/01 17:17:43;;;;;;;11.75;10.35;;;;;;;;;;10029249;29;20097;-73
2023/07/01 17:22:41;;;;;;;11.52;10.43;;;;;;;;;;10035481;29;20051;-72
2023/07/01 17:27:37;;;;;;;11.45;10.45;;;;;;;;;;10031013;29;20557;-73
2023/07/01 17:32:34;;;;;;;11.75;10.75;;;;;;;;;;10035644;29;20103;-73
2023/07/01 17:37:32;;;;;;;12.63;11.52;;;;;;;;;;10029631;29;20131;-73
2023/07/01 17:42:28;;;;;;;12.75;11.60;;;;;;;;;;10035370;29;20052;-73
2023/07/01 17:47:25;;;;;;;12.35;11.23;;;;;;;;;;10032132;29;20518;-73
2023/07/01 17:52:21;;;;;;;11.88;10.80;;;;;;;;;;10035430;29;20065;-73
2023/07/01 17:57:19;;;;;;;11.85;10.20;;;;;;;;;;10032560;29;20048;-73
2023/07/01 18:02:21;;;;;;;10.80;9.85;;;;;;;;;;10015284;29;20726;-74
2023/07/01 18:07:18;;;;;;;10.25;8.70;;;;;;;;;;10035232;29;20651;-73
2023/07/01 18:12:14;;;;;;;9.93;9.02;;;;;;;;;;10033462;29;20344;-73
2023/07/01 18:17:10;;;;;;;9.55;8.75;;;;;;;;;;10015681;29;20748;-73
2023/07/01 18:22:07;;;;;;;10.05;9.25;;;;;;;;;;10030432;29;20039;-73
2023/07/01 18:27:04;;;;;;;11.30;10.30;;;;;;;;;;10033029;29;20051;-73
2023/07/01 18:32:00;;;;;;;12.68;10.18;;;;;;;;;;10031038;29;20414;-73
2023/07/01 18:36:56;;;;;;;11.05;10.02;;;;;;;;;;10017348;29;20659;-73
2023/07/01 18:41:53;;;;;;;11.88;10.88;;;;;;;;;;10032785;29;20766;-73
2023/07/01 18:46:50;;;;;;;13.20;11.02;;;;;;;;;;10012127;29;20497;-73
2023/07/01 18:51:46;;;;;;;13.05;11.80;;;;;;;;;;10032942;29;20051;-73
2023/07/01 18:56:42;;;;;;;12.27;11.10;;;;;;;;;;10032596;29;20044;-73
2023/07/01 19:01:39;;;;;;;11.98;10.93;;;;;;;;;;10031487;29;20047;-73
2023/07/01 19:06:35;;;;;;;13.38;11.23;;;;;;;;;;10033157;29;20506;-73
2023/07/01 19:11:31;;;;;;;13.25;11.90;;;;;;;;;;10029162;29;20059;-73
2023/07/01 19:16:28;;;;;;;15.00;12.10;;;;;;;;;;10032984;29;20047;-73
2023/07/01 19:21:24;;;;;;;13.68;12.52;;;;;;;;;;10009668;29;20039;-73
2023/07/01 19:26:21;;;;;;;13.73;12.48;;;;;;;;;;10031118;29;20063;-73
2023/07/01 19:31:17;;;;;;;15.48;13.88;;;;;;;;;;10010527;29;20108;-73
2023/07/01 19:36:13;;;;;;;12.23;11.07;;;;;;;;;;10031609;29;20529;-73
2023/07/01 19:41:10;;;;;;;14.57;11.27;;;;;;;;;;10025730;29;20070;-73
2023/07/01 19:46:06;;;;;;;14.70;12.98;;;;;;;;;;10032829;29;20592;-73
2023/07/01 19:51:02;;;;;;;16.38;14.05;;;;;;;;;;10017810;29;20525;-73
2023/07/01 19:55:59;;;;;;;16.33;12.98;;;;;;;;;;10032514;29;20070;-73
2023/07/01 20:00:55;;;;;;;14.35;12.48;;;;;;;;;;10008267;29;20111;-73
2023/07/01 20:05:52;;;;;;;15.98;13.25;;;;;;;;;;10023997;29;20052;-73
2023/07/01 20:10:49;;;;;;;14.10;12.70;;;;;;;;;;10030204;29;20083;-73
2023/07/01 20:15:46;;;;;;;16.77;13.70;;;;;;;;;;10023306;29;20422;-73
2023/07/01 20:20:43;;;;;;;15.60;14.20;;;;;;;;;;10037719;29;20130;-73
2023/07/01 20:25:39;;;;;;;14.00;12.70;;;;;;;;;;10036458;29;20107;-73
2023/07/01 20:30:36;;;;;;;14.13;12.60;;;;;;;;;;10036747;29;20047;-73
2023/07/01 20:35:32;;;;;;;13.52;12.38;;;;;;;;;;10016863;29;20054;-73
2023/07/01 20:40:30;;;;;;;13.43;12.35;;;;;;;;;;10020496;29;20422;-73
2023/07/01 20:45:27;;;;;;;14.80;11.57;;;;;;;;;;10036719;29;20510;-73
2023/07/01 20:50:23;;;;;;;14.18;12.77;;;;;;;;;;10015011;29;20047;-73
2023/07/01 20:55:19;;;;;;;11.73;10.77;;;;;;;;;;10037631;29;20051;-73
2023/07/01 21:00:16;;;;;;;11.77;10.73;;;;;;;;;;10022036;29;20051;-73
2023/07/01 21:05:13;;;;;;;11.27;10.18;;;;;;;;;;10018543;29;20054;-73
2023/07/01 21:10:12;;;;;;;10.65;9.75;;;;;;;;;;10036958;29;20490;-73
2023/07/01 21:15:09;;;;;;;12.00;10.80;;;;;;;;;;10033466;29;20139;-73
2023/07/01 21:20:08;;;;;;;11.65;10.48;;;;;;;;;;10033805;29;20082;-73
2023/07/01 21:25:05;;;;;;;10.38;9.20;;;;;;;;;;10029704;29;20462;-73
2023/07/01 21:30:02;;;;;;;11.05;10.02;;;;;;;;;;10011053;29;20052;-74
2023/07/01 21:35:04;;;;;;;9.75;8.90;;;;;;;;;;10036003;29;20379;-73
2023/07/01 21:40:00;;;;;;;9.82;8.93;;;;;;;;;;10028647;29;20111;-73
2023/07/01 21:44:56;;;;;;;11.73;9.77;;;;;;;;;;10036065;29;20074;-73
2023/07/01 21:49:53;;;;;;;13.52;10.20;;;;;;;;;;10030196;29;20106;-73
2023/07/01 21:54:49;;;;;;;10.45;9.52;;;;;;;;;;10013767;29;20048;-73
2023/07/01 21:59:53;;;;;;;10.27;9.25;;;;;;;;;;10030411;29;20067;-74
2023/07/01 22:04:49;;;;;;;9.68;8.77;;;;;;;;;;10008922;29;20039;-73
2023/07/01 22:09:48;;;;;;;12.35;9.63;;;;;;;;;;10030571;29;20052;-73
2023/07/01 22:14:44;;;;;;;12.13;10.32;;;;;;;;;;10032595;29;20114;-74
2023/07/01 22:19:40;;;;;;;11.50;9.98;;;;;;;;;;10024384;29;20051;-73
2023/07/01 22:24:36;;;;;;;11.77;9.38;;;;;;;;;;10034368;29;20098;-73
2023/07/01 22:29:33;;;;;;;13.27;8.45;;;;;;;;;;10033358;29;20051;-74
2023/07/01 22:34:29;;;;;;;11.00;8.73;;;;;;;;;;10013771;29;20513;-73
2023/07/01 22:39:25;;;;;;;8.40;7.43;;;;;;;;;;10028405;29;20055;-73
2023/07/01 22:44:22;;;;;;;11.50;7.05;;;;;;;;;;10020038;29;20529;-73
2023/07/01 22:49:18;;;;;;;12.18;7.60;;;;;;;;;;10028887;29;20556;-73
2023/07/01 22:54:14;;;;;;;9.57;7.50;;;;;;;;;;10026158;29;20059;-73
2023/07/01 22:59:11;;;;;;;11.05;7.88;;;;;;;;;;10031422;29;20051;-73
2023/07/01 23:04:07;;;;;;;9.10;7.70;;;;;;;;;;10030969;29;20078;-73
2023/07/01 23:09:04;;;;;;;10.20;7.18;;;;;;;;;;10031307;29;20130;-73
2023/07/01 23:14:00;;;;;;;9.00;7.07;;;;;;;;;;10032877;29;20047;-73
2023/07/01 23:18:56;;;;;;;11.57;6.93;;;;;;;;;;10031601;29;20110;-73
2023/07/01 23:23:53;;;;;;;8.32;7.53;;;;;;;;;;10032799;29;20576;-73
2023/07/01 23:28:52;;;;;;;9.43;7.25;;;;;;;;;;10029468;29;20052;-73
2023/07/01 23:33:49;;;;;;;8.10;7.40;;;;;;;;;;10031968;29;20064;-73
2023/07/01 23:38:45;;;;;;;9.18;8.27;;;;;;;;;;10026228;29;20649;-73
2023/07/01 23:43:42;;;;;;;8.68;7.88;;;;;;;;;;10031463;29;20189;-74
2023/07/01 23:48:41;;;;;;;8.73;8.02;;;;;;;;;;10037548;29;20082;-74
2023/07/01 23:53:37;;;;;;;10.15;8.55;;;;;;;;;;10017977;29;20222;-73
2023/07/01 23:58:33;;;;;;;10.00;9.00;;;;;;;;;;10039954;29;20075;-73
